createdAt,value
2022-09-13T00:03:24.339Z,4.53
2022-09-13T00:08:25.789Z,2.77
2022-09-13T00:13:27.221Z,2.70
2022-09-13T00:18:28.670Z,2.80
2022-09-13T00:23:30.976Z,2.60
2022-09-13T00:28:33.219Z,2.90
2022-09-13T00:33:35.370Z,3.23
2022-09-13T00:38:40.633Z,2.83
2022-09-13T00:43:52.350Z,2.80
2022-09-13T00:48:57.514Z,3.30
2022-09-13T00:53:59.837Z,2.83
2022-09-13T00:59:19.626Z,2.70
2022-09-13T01:04:23.055Z,3.57
2022-09-13T01:09:25.019Z,2.80
2022-09-13T01:14:27.517Z,3.23
2022-09-13T01:19:29.016Z,2.97
2022-09-13T01:24:45.360Z,3.10
2022-09-13T01:30:11.192Z,2.97
2022-09-13T01:35:27.212Z,4.10
2022-09-13T01:40:45.046Z,3.27
2022-09-13T01:46:00.789Z,3.33
2022-09-13T01:51:15.053Z,2.87
2022-09-13T01:56:23.742Z,2.87
2022-09-13T02:01:37.555Z,3.53
2022-09-13T02:06:47.937Z,3.47
2022-09-13T02:11:54.021Z,4.30
2022-09-13T02:17:01.628Z,2.80
2022-09-13T02:22:06.506Z,3.27
2022-09-13T02:27:10.951Z,2.93
2022-09-13T02:32:21.698Z,2.70
2022-09-13T02:37:24.954Z,2.73
2022-09-13T02:42:31.199Z,2.90
2022-09-13T02:47:45.197Z,3.37
2022-09-13T02:53:12.083Z,2.87
2022-09-13T02:58:35.414Z,2.90
2022-09-13T03:03:37.218Z,3.00
2022-09-13T03:08:38.985Z,2.80
2022-09-13T03:14:13.866Z,2.80
2022-09-13T03:19:31.510Z,3.77
2022-09-13T03:25:05.045Z,2.50
2022-09-13T03:30:08.773Z,2.80
2022-09-13T03:35:35.028Z,3.23
2022-09-13T03:40:49.887Z,3.50
2022-09-13T03:45:55.924Z,3.30
2022-09-13T03:50:58.238Z,3.13
2022-09-13T03:55:59.873Z,2.80
2022-09-13T04:01:01.822Z,2.50
2022-09-13T04:06:03.766Z,3.70
2022-09-13T04:11:05.682Z,3.03
2022-09-13T04:16:07.630Z,2.90
2022-09-13T04:21:09.213Z,2.97
2022-09-13T04:26:11.199Z,2.80
2022-09-13T04:31:13.171Z,2.83
2022-09-13T04:36:14.838Z,3.10
2022-09-13T04:41:17.423Z,2.77
2022-09-13T04:46:19.080Z,3.00
2022-09-13T04:51:21.843Z,3.23
2022-09-13T04:56:24.423Z,3.20
2022-09-13T05:01:27.828Z,3.00
2022-09-13T05:06:30.607Z,3.60
2022-09-13T05:11:32.163Z,3.47
2022-09-13T05:16:33.879Z,2.80
2022-09-13T05:21:35.398Z,3.47
2022-09-13T05:26:36.894Z,3.40
2022-09-13T05:31:40.586Z,3.70
2022-09-13T05:36:42.275Z,3.10
2022-09-13T05:41:44.683Z,3.87
2022-09-13T05:46:49.495Z,3.33
2022-09-13T05:51:50.970Z,2.93
2022-09-13T05:56:54.167Z,3.23
2022-09-13T06:01:56.071Z,2.80
2022-09-13T06:06:57.912Z,4.20
2022-09-13T06:11:59.610Z,2.80
2022-09-13T06:17:01.166Z,2.87
2022-09-13T06:22:02.930Z,2.80
2022-09-13T06:27:04.621Z,3.27
2022-09-13T06:32:06.744Z,2.97
2022-09-13T06:37:08.528Z,2.80
2022-09-13T06:42:10.361Z,3.30
2022-09-13T06:47:14.662Z,2.60
2022-09-13T06:52:16.182Z,3.27
2022-09-13T06:57:17.845Z,2.67
2022-09-13T07:02:19.798Z,3.20
2022-09-13T07:07:21.383Z,3.03
2022-09-13T07:12:23.624Z,2.87
2022-09-13T07:17:28.515Z,4.47
2022-09-13T07:22:32.801Z,2.70
2022-09-13T07:27:34.406Z,2.70
2022-09-13T07:32:36.055Z,2.93
2022-09-13T07:37:37.680Z,2.80
2022-09-13T07:42:39.500Z,2.57
2022-09-13T07:47:41.212Z,2.70
2022-09-13T07:52:42.755Z,3.87
2022-09-13T07:57:44.368Z,2.83
2022-09-13T08:02:46.059Z,2.60
2022-09-13T08:07:47.893Z,3.73
2022-09-13T08:12:49.653Z,2.87
2022-09-13T08:17:51.362Z,5.10
2022-09-13T08:22:52.862Z,2.60
2022-09-13T08:27:54.803Z,2.40
2022-09-13T08:32:56.466Z,4.95
2022-09-13T08:37:58.251Z,6.68
2022-09-13T08:43:13.808Z,2.53
2022-09-13T08:48:19.353Z,5.50
2022-09-13T08:53:29.450Z,2.28
2022-09-13T08:58:46.571Z,2.67
2022-09-13T09:04:14.147Z,3.97
2022-09-13T09:09:20.655Z,2.20
2022-09-13T09:14:34.011Z,4.95
2022-09-13T09:19:41.116Z,4.68
2022-09-13T09:24:46.813Z,5.15
2022-09-13T09:29:49.957Z,1.95
2022-09-13T09:35:20.288Z,2.50
2022-09-13T09:40:22.014Z,2.83
2022-09-13T09:45:30.410Z,2.10
2022-09-13T09:50:35.842Z,2.92
2022-09-13T09:55:45.707Z,4.20
2022-09-13T10:00:57.524Z,4.10
2022-09-13T10:06:06.256Z,2.00
2022-09-13T10:11:08.728Z,1.70
2022-09-13T10:16:26.353Z,1.50
2022-09-13T10:21:28.148Z,1.67
2022-09-13T10:26:32.969Z,1.73
2022-09-13T10:31:37.540Z,1.77
2022-09-13T10:36:52.615Z,1.45
2022-09-13T10:41:58.241Z,2.38
2022-09-13T10:47:03.462Z,1.75
2022-09-13T10:52:31.175Z,1.08
2022-09-13T10:57:37.565Z,1.40
2022-09-13T11:02:58.744Z,4.03
2022-09-13T11:08:31.196Z,1.90
2022-09-13T11:13:52.521Z,1.30
2022-09-13T11:19:08.416Z,1.33
2022-09-13T11:24:19.737Z,1.65
2022-09-13T11:29:28.737Z,1.77
2022-09-13T11:35:02.353Z,1.80
2022-09-13T11:40:22.958Z,1.80
2022-09-13T11:45:28.239Z,1.55
2022-09-13T11:50:38.120Z,1.50
2022-09-13T11:55:50.103Z,1.75
2022-09-13T12:00:58.302Z,2.22
2022-09-13T12:06:05.311Z,1.42
2022-09-13T12:11:20.187Z,2.10
2022-09-13T12:16:39.006Z,1.77
2022-09-13T12:21:41.500Z,3.63
2022-09-13T12:26:56.838Z,1.45
2022-09-13T12:32:00.713Z,1.95
2022-09-13T12:37:08.978Z,1.35
2022-09-13T12:42:43.992Z,1.30
2022-09-13T12:48:00.847Z,2.90
2022-09-13T12:53:23.476Z,1.70
2022-09-13T12:58:43.267Z,2.85
2022-09-13T13:03:54.019Z,1.45
2022-09-13T13:08:57.790Z,3.85
2022-09-13T13:14:09.322Z,2.85
2022-09-13T13:19:31.261Z,1.95
2022-09-13T13:24:33.022Z,1.73
2022-09-13T13:29:35.048Z,1.70
2022-09-13T13:34:42.484Z,2.38
2022-09-13T13:39:44.634Z,2.58
2022-09-13T13:44:46.210Z,1.63
2022-09-13T13:49:52.472Z,1.40
2022-09-13T13:55:04.256Z,1.42
2022-09-13T14:00:15.926Z,1.60
2022-09-13T14:05:20.462Z,1.33
2022-09-13T14:10:28.298Z,2.83
2022-09-13T14:15:59.585Z,1.92
2022-09-13T14:21:09.387Z,3.15
2022-09-13T14:26:11.525Z,2.30
2022-09-13T14:31:18.506Z,1.70
2022-09-13T14:36:21.709Z,1.67
2022-09-13T14:41:33.958Z,1.55
2022-09-13T14:46:39.435Z,1.77
2022-09-13T14:51:48.479Z,1.45
2022-09-13T14:56:53.162Z,2.40
2022-09-13T15:01:54.881Z,1.63
2022-09-13T15:07:08.385Z,1.30
2022-09-13T15:12:23.908Z,1.15
2022-09-13T15:17:25.518Z,2.05
2022-09-13T15:22:32.080Z,1.45
2022-09-13T15:27:43.860Z,1.90
2022-09-13T15:32:45.862Z,2.58
2022-09-13T15:37:47.380Z,2.92
2022-09-13T15:42:51.765Z,3.05
2022-09-13T15:47:53.401Z,1.58
2022-09-13T15:52:55.503Z,1.67
2022-09-13T15:57:57.008Z,2.83
2022-09-13T16:02:59.966Z,2.55
2022-09-13T16:08:01.478Z,2.00
2022-09-13T16:13:02.934Z,3.22
2022-09-13T16:18:04.375Z,1.65
2022-09-13T16:23:05.880Z,1.67
2022-09-13T16:28:07.635Z,1.52
2022-09-13T16:33:09.192Z,3.17
2022-09-13T16:38:10.809Z,2.25
2022-09-13T16:43:13.333Z,1.73
2022-09-13T16:48:15.040Z,3.30
2022-09-13T16:53:16.629Z,1.55
2022-09-13T16:58:18.230Z,1.92
2022-09-13T17:03:20.384Z,1.50
2022-09-13T17:08:21.966Z,2.70
2022-09-13T17:13:24.096Z,2.37
2022-09-13T17:18:25.875Z,2.30
2022-09-13T17:23:28.268Z,1.70
2022-09-13T17:28:29.849Z,3.47
2022-09-13T17:33:31.466Z,2.60
2022-09-13T17:38:33.265Z,2.70
2022-09-13T17:43:35.709Z,2.30
2022-09-13T17:48:37.780Z,2.67
2022-09-13T17:53:44.226Z,2.67
2022-09-13T17:58:45.959Z,2.50
2022-09-13T18:03:48.009Z,2.20
2022-09-13T18:08:52.914Z,1.90
2022-09-13T18:13:54.459Z,2.93
2022-09-13T18:18:56.606Z,2.20
2022-09-13T18:23:59.770Z,3.97
2022-09-13T18:29:20.688Z,2.23
2022-09-13T18:34:27.010Z,3.20
2022-09-13T18:39:29.433Z,2.37
2022-09-13T18:44:31.565Z,2.53
2022-09-13T18:49:33.234Z,3.80
2022-09-13T18:54:34.790Z,2.50
2022-09-13T18:59:36.278Z,2.73
2022-09-13T19:04:37.920Z,2.43
2022-09-13T19:09:39.539Z,3.00
2022-09-13T19:14:41.144Z,4.10
2022-09-13T19:19:42.697Z,3.40
2022-09-13T19:24:44.359Z,3.83
2022-09-13T19:29:46.128Z,3.43
2022-09-13T19:34:48.046Z,6.17
2022-09-13T19:39:49.795Z,3.13
2022-09-13T19:44:51.566Z,4.27
2022-09-13T19:49:53.335Z,6.17
2022-09-13T19:54:58.503Z,5.60
2022-09-13T20:00:00.358Z,3.00
2022-09-13T20:05:02.063Z,3.80
2022-09-13T20:10:03.789Z,3.13
2022-09-13T20:15:06.162Z,4.33
2022-09-13T20:20:07.972Z,2.60
2022-09-13T20:25:10.318Z,2.83
2022-09-13T20:30:12.410Z,3.43
2022-09-13T20:35:14.123Z,2.83
2022-09-13T20:40:16.412Z,3.83
2022-09-13T20:45:18.012Z,3.27
2022-09-13T20:50:20.334Z,4.30
2022-09-13T20:55:22.058Z,2.93
2022-09-13T21:00:25.247Z,3.07
2022-09-13T21:05:26.806Z,3.27
2022-09-13T21:10:28.925Z,3.33
2022-09-13T21:15:31.594Z,3.03
2022-09-13T21:20:34.306Z,2.70
2022-09-13T21:25:36.516Z,2.73
2022-09-13T21:30:38.415Z,3.33
2022-09-13T21:35:40.055Z,3.10
2022-09-13T21:40:41.583Z,3.83
2022-09-13T21:45:44.731Z,4.17
2022-09-13T21:50:46.406Z,3.50
2022-09-13T21:55:47.963Z,3.30
2022-09-13T22:00:50.219Z,3.00
2022-09-13T22:05:55.815Z,3.67
2022-09-13T22:10:57.655Z,3.37
2022-09-13T22:16:09.470Z,4.07
2022-09-13T22:21:14.304Z,3.67
2022-09-13T22:26:23.502Z,4.00
2022-09-13T22:31:39.562Z,3.90
2022-09-13T22:36:41.484Z,4.20
2022-09-13T22:41:44.974Z,3.40
2022-09-13T22:46:47.214Z,5.37
2022-09-13T22:51:49.061Z,4.20
2022-09-13T22:56:50.545Z,3.83
2022-09-13T23:01:52.100Z,5.37
2022-09-13T23:06:53.590Z,6.53
2022-09-13T23:11:55.150Z,7.30
2022-09-13T23:16:56.951Z,8.43
2022-09-13T23:21:58.567Z,8.30
2022-09-13T23:27:01.577Z,7.07
2022-09-13T23:32:03.244Z,8.80
2022-09-13T23:37:05.228Z,6.17
2022-09-13T23:42:06.717Z,7.20
2022-09-13T23:47:09.219Z,7.83
2022-09-13T23:52:10.689Z,6.67
2022-09-13T23:57:12.169Z,6.57
